Terminal Aerodrome Forecast
Issued by NWS Portland, ME

Home | Current Version | Previous Version | Text Only | Print | Product List | Glossary On
Versions: 1 2 3 4 5 6 7 8 9 10 11 12 13 14 15 16 17 18 19 20
000
FTUS41 KGYX 260534
TAFCON
TAF
KCON 260534Z 2606/2706 04012KT 6SM -RADZ OVC012
     FM260630 03010KT 3SM RA VCTS OVC007CB
     FM260800 02009KT 3SM -RADZ OVC007
     FM261500 34008KT P6SM OVC020 PROB30 2618/2624 4SM -SHRA OVC012=

USA.gov is the U.S. government's official web portal to all federal, state and local government web resources and services.